首页
METAR-TAF:

METAR-TAF

机场 :

累西腓/瓜拉拉皮斯-吉尔贝托·弗雷雷国际机场

累西腓, 伯南布哥, 巴西

纬度: 08-08S, 经度: 034-55W, 海拔: 19米

当前天气观测

该预报发布于19分钟前的00:00 UTC
风速5节,风向
温度 26°C
湿度 79%
气压 1013 hPa
能见度10公里或以上
散云层高于2500英尺

METAR: SBRF 220000Z 08005KT 9999 SCT025 26/22 Q1013

时间: 21:19 (00:19 UTC)

预报

该预报发布于2小时和19分钟前的22:00 UTC
预报有效从22日的 00点(UTC)到 22日的 24点(UTC)
风速8节,风向东转东北
能見度: 8000
散云层高于2000英尺

TAF: SBRF 212200Z 2200/2224 07008KT 8000 SCT020 TN24/2208Z TX29/2215Z RMK PCH

超过4000个机场的气象观测和天气预报(METAR&TAF报告)。

可查询的气象台以黄色和红色小点在地图上表示。

将鼠标移到小点上方,可查看气象台名称。

然后点击查看天气观测和预报。

如需切换地图:点击带黑十字的绿色按钮放大地图;点击带横线的绿色按钮缩小地图;或者点击绿色箭头查看邻近地区的地图。


METAR-TAF: